Time;durP1;ratioP1;P1;durP2;ratioP2;P2;SDS_P1;SDS_P2;PMS_P1;PMS_P2;Temp;Humidity;BMP_temperature;BMP_pressure;BME280_temperature;BME280_humidity;BME280_pressure;Samples;Min_cycle;Max_cycle;Signal;HPM_P1;HPM_P2
2022/03/07 00:01:10;;;;;;;1999.90;999.90;;;1.60;99.90;;;;;;5030861;28;20875;-69
2022/03/07 00:03:36;;;;;;;1999.90;999.90;;;1.70;99.90;;;;;;5031851;28;20505;-68
2022/03/07 00:06:04;;;;;;;1999.90;999.90;;;1.60;99.90;;;;;;5032469;28;20451;-68
2022/03/07 00:08:31;;;;;;;1999.90;999.90;;;1.70;99.90;;;;;;5031320;28;20991;-69
2022/03/07 00:10:58;;;;;;;1999.90;999.90;;;1.70;99.90;;;;;;5031574;28;20451;-66
2022/03/07 00:13:26;;;;;;;1999.90;999.90;;;1.70;99.90;;;;;;5031922;28;20451;-70
2022/03/07 00:15:54;;;;;;;1999.90;999.90;;;1.60;99.90;;;;;;5015120;28;20456;-68
2022/03/07 00:18:20;;;;;;;1999.90;999.90;;;1.60;99.90;;;;;;5016871;28;20494;-68
2022/03/07 00:20:47;;;;;;;1999.90;999.90;;;1.50;99.90;;;;;;5036121;28;20470;-69
2022/03/07 00:23:15;;;;;;;1999.90;999.90;;;1.60;99.90;;;;;;5035626;28;20497;-69
2022/03/07 00:25:42;;;;;;;1999.90;999.90;;;1.60;99.90;;;;;;5035996;28;20455;-68
2022/03/07 00:28:08;;;;;;;1999.90;999.90;;;1.70;99.90;;;;;;5035254;28;20463;-69
2022/03/07 00:30:35;;;;;;;1999.90;999.90;;;1.80;99.90;;;;;;5034313;28;20451;-69
2022/03/07 00:33:03;;;;;;;1999.90;999.90;;;1.90;99.90;;;;;;5034748;28;20458;-68
2022/03/07 00:35:30;;;;;;;1999.90;999.90;;;1.90;99.90;;;;;;5035094;28;20447;-68
2022/03/07 00:37:57;;;;;;;1999.90;999.90;;;1.70;99.90;;;;;;5035438;28;20839;-68
2022/03/07 00:40:23;;;;;;;1999.90;999.90;;;1.60;99.90;;;;;;5035295;28;21133;-68
2022/03/07 00:42:50;;;;;;;1999.90;999.90;;;1.60;99.90;;;;;;5035286;28;20867;-68
2022/03/07 00:45:18;;;;;;;1999.90;999.90;;;1.50;99.90;;;;;;5034814;28;20828;-69
2022/03/07 00:47:44;;;;;;;1999.90;999.90;;;1.40;99.90;;;;;;5035590;28;20475;-70
2022/03/07 00:50:12;;;;;;;1999.90;999.90;;;1.40;99.90;;;;;;5034189;28;20451;-65
2022/03/07 00:52:39;;;;;;;1999.90;999.90;;;1.40;99.90;;;;;;5035873;28;20443;-67
2022/03/07 00:55:08;;;;;;;1999.90;999.90;;;1.40;99.90;;;;;;5034822;28;20452;-68
2022/03/07 00:57:35;;;;;;;1999.90;999.90;;;1.40;99.90;;;;;;5034587;28;20467;-68
2022/03/07 01:00:01;;;;;;;1999.90;999.90;;;1.70;99.90;;;;;;5034201;28;20490;-69
2022/03/07 01:02:28;;;;;;;1999.90;999.90;;;1.70;99.90;;;;;;5034024;28;20451;-68
2022/03/07 01:04:55;;;;;;;1999.90;999.90;;;1.70;99.90;;;;;;5034298;28;20447;-69
2022/03/07 01:07:23;;;;;;;1999.90;999.90;;;1.80;99.90;;;;;;5034282;28;20914;-69
2022/03/07 01:09:50;;;;;;;1999.90;999.90;;;1.80;99.90;;;;;;5034498;28;20872;-69
2022/03/07 01:12:16;;;;;;;1999.90;999.90;;;2.00;99.90;;;;;;5035592;28;20447;-69
2022/03/07 01:14:44;;;;;;;1999.90;999.90;;;2.10;99.90;;;;;;5037050;28;20451;-70
2022/03/07 01:17:10;;;;;;;1999.90;999.90;;;2.00;99.90;;;;;;5036193;28;20494;-69
2022/03/07 01:19:37;;;;;;;1999.90;999.90;;;1.90;99.90;;;;;;5036303;28;20995;-70
2022/03/07 01:22:04;;;;;;;1999.90;999.90;;;1.90;99.90;;;;;;5035142;28;20447;-70
2022/03/07 01:24:32;;;;;;;1999.90;999.90;;;1.90;99.90;;;;;;5036269;28;20470;-68
2022/03/07 01:26:59;;;;;;;1999.90;999.90;;;1.80;99.90;;;;;;5035964;28;20471;-78
2022/03/07 01:29:26;;;;;;;1999.90;999.90;;;1.80;99.90;;;;;;5035313;28;20435;-68
2022/03/07 01:31:52;;;;;;;1999.90;999.90;;;1.70;99.90;;;;;;5035576;28;20451;-70
2022/03/07 01:34:19;;;;;;;1999.90;999.90;;;1.80;99.90;;;;;;5035903;28;20459;-69
2022/03/07 01:36:46;;;;;;;1999.90;999.90;;;1.80;99.90;;;;;;5035420;28;20455;-69
2022/03/07 01:39:13;;;;;;;1999.90;999.90;;;1.70;99.90;;;;;;5036249;28;20486;-69
2022/03/07 01:41:41;;;;;;;1999.90;999.90;;;1.80;99.90;;;;;;5036427;28;21121;-70
2022/03/07 01:44:17;;;;;;;1999.90;999.90;;;1.90;99.90;;;;;;5035887;28;20451;-69
2022/03/07 01:46:44;;;;;;;1999.90;999.90;;;1.80;99.90;;;;;;5034699;28;20858;-69
2022/03/07 01:49:10;;;;;;;1999.90;999.90;;;1.80;99.90;;;;;;5034879;28;20501;-69
2022/03/07 01:51:38;;;;;;;1999.90;999.90;;;1.70;99.90;;;;;;5034336;28;20485;-68
2022/03/07 01:54:05;;;;;;;1999.90;999.90;;;1.60;99.90;;;;;;5035609;28;20513;-69
2022/03/07 01:56:31;;;;;;;1999.90;999.90;;;1.70;99.90;;;;;;5034914;28;20955;-69
2022/03/07 01:58:59;;;;;;;1999.90;999.90;;;1.70;99.90;;;;;;5033502;28;20540;-71
2022/03/07 02:01:26;;;;;;;1999.90;999.90;;;1.60;99.90;;;;;;5033065;28;20532;-69
2022/03/07 02:03:53;;;;;;;1999.90;999.90;;;1.60;99.90;;;;;;5034439;28;20459;-69
2022/03/07 02:06:19;;;;;;;1999.90;999.90;;;1.70;99.90;;;;;;5035070;28;20454;-69
2022/03/07 02:08:46;;;;;;;1999.90;999.90;;;1.80;99.90;;;;;;5036018;28;20479;-69
2022/03/07 02:11:14;;;;;;;1999.90;999.90;;;1.80;99.90;;;;;;5035560;28;20451;-69
2022/03/07 02:13:41;;;;;;;1999.90;999.90;;;1.80;99.90;;;;;;5035739;28;20447;-68
2022/03/07 02:16:11;;;;;;;1999.90;999.90;;;1.70;99.90;;;;;;5034131;28;20446;-69
2022/03/07 02:18:38;;;;;;;1999.90;999.90;;;1.60;99.90;;;;;;5033325;28;20477;-70
2022/03/07 02:21:09;;;;;;;1999.90;999.90;;;1.60;99.90;;;;;;5032403;28;20918;-70
2022/03/07 02:23:37;;;;;;;1999.90;999.90;;;1.60;99.90;;;;;;5032570;28;20479;-68
2022/03/07 02:26:09;;;;;;;1999.90;999.90;;;1.50;99.90;;;;;;5033219;28;20866;-68
2022/03/07 02:28:35;;;;;;;1999.90;999.90;;;1.40;99.90;;;;;;5032804;28;20474;-69
2022/03/07 02:31:02;;;;;;;1999.90;999.90;;;1.40;99.90;;;;;;5033639;28;20439;-70
2022/03/07 02:33:29;;;;;;;1999.90;999.90;;;1.40;99.90;;;;;;5032729;28;20443;-69
2022/03/07 02:35:56;;;;;;;1999.90;999.90;;;1.40;99.90;;;;;;5032561;28;20451;-69
2022/03/07 02:38:23;;;;;;;1999.90;999.90;;;1.40;99.90;;;;;;5033361;28;20528;-68
2022/03/07 02:40:51;;;;;;;1999.90;999.90;;;1.60;99.90;;;;;;5032702;28;20510;-69
2022/03/07 02:43:18;;;;;;;1999.90;999.90;;;1.80;99.90;;;;;;5032686;28;20509;-69
2022/03/07 02:45:46;;;;;;;1999.90;999.90;;;1.70;99.90;;;;;;5033133;28;20446;-69
2022/03/07 02:48:13;;;;;;;1999.90;999.90;;;1.60;99.90;;;;;;5032585;28;20823;-68
2022/03/07 02:50:40;;;;;;;1999.90;999.90;;;1.60;99.90;;;;;;5033123;28;20446;-70
2022/03/07 02:53:07;;;;;;;1999.90;999.90;;;1.50;99.90;;;;;;5032528;28;20505;-68
2022/03/07 02:55:34;;;;;;;1999.90;999.90;;;1.50;99.90;;;;;;5031245;28;20478;-68
2022/03/07 02:58:03;;;;;;;1999.90;999.90;;;1.50;99.90;;;;;;5032435;28;20467;-69
2022/03/07 03:00:30;;;;;;;1999.90;999.90;;;1.70;99.90;;;;;;5031837;28;20479;-68
2022/03/07 03:02:57;;;;;;;1999.90;999.90;;;1.60;99.90;;;;;;5032801;28;20450;-69
2022/03/07 03:05:23;;;;;;;1999.90;999.90;;;1.50;99.90;;;;;;5031803;28;20805;-69
2022/03/07 03:07:51;;;;;;;1999.90;999.90;;;1.60;99.90;;;;;;5032001;28;20479;-69
2022/03/07 03:10:20;;;;;;;1999.90;999.90;;;1.80;99.90;;;;;;5032137;28;20534;-69
2022/03/07 03:12:47;;;;;;;1999.90;999.90;;;1.80;99.90;;;;;;5031979;28;20859;-68
2022/03/07 03:15:17;;;;;;;1999.90;999.90;;;1.80;99.90;;;;;;5031515;28;20447;-68
2022/03/07 03:17:44;;;;;;;1999.90;999.90;;;1.80;99.90;;;;;;5031909;28;20485;-69
2022/03/07 03:20:12;;;;;;;1999.90;999.90;;;1.80;99.90;;;;;;5031939;28;20479;-70
2022/03/07 03:22:39;;;;;;;1999.90;999.90;;;1.70;99.90;;;;;;5031653;28;20451;-69
2022/03/07 03:25:07;;;;;;;1999.90;999.90;;;1.80;99.90;;;;;;5031707;28;20532;-69
2022/03/07 03:27:35;;;;;;;1999.90;999.90;;;1.70;99.90;;;;;;5032316;28;20498;-69
2022/03/07 03:30:01;;;;;;;1999.90;999.90;;;1.50;99.90;;;;;;5032237;28;20534;-69
2022/03/07 03:32:30;;;;;;;1999.90;999.90;;;1.50;99.90;;;;;;5032594;28;20455;-70
2022/03/07 03:34:57;;;;;;;1999.90;999.90;;;1.40;99.90;;;;;;5032330;28;20533;-69
2022/03/07 03:37:24;;;;;;;1999.90;999.90;;;1.50;99.90;;;;;;5032090;28;20876;-69
2022/03/07 03:39:51;;;;;;;1999.90;999.90;;;1.60;99.90;;;;;;5032154;28;20546;-70
2022/03/07 03:42:18;;;;;;;1999.90;999.90;;;1.50;99.90;;;;;;5031144;28;20857;-70
2022/03/07 03:44:44;;;;;;;1999.90;999.90;;;1.40;99.90;;;;;;5032120;28;20513;-69
2022/03/07 03:47:11;;;;;;;1999.90;999.90;;;1.50;99.90;;;;;;5031701;28;20522;-69
2022/03/07 03:49:39;;;;;;;1999.90;999.90;;;1.40;99.90;;;;;;5032095;28;21132;-70
2022/03/07 03:52:07;;;;;;;1999.90;999.90;;;1.50;99.90;;;;;;5033003;28;21013;-68
2022/03/07 03:54:34;;;;;;;1999.90;999.90;;;1.50;99.90;;;;;;5036717;28;20959;-69
2022/03/07 03:57:00;;;;;;;1999.90;999.90;;;1.50;99.90;;;;;;5036362;28;20712;-69
2022/03/07 03:59:27;;;;;;;1999.90;999.90;;;1.40;99.90;;;;;;5035903;28;20443;-68
2022/03/07 04:01:54;;;;;;;1999.90;999.90;;;1.60;99.90;;;;;;5035091;28;20889;-69
2022/03/07 04:04:20;;;;;;;1999.90;999.90;;;1.50;99.90;;;;;;5036004;28;20939;-68
2022/03/07 04:06:48;;;;;;;1999.90;999.90;;;1.40;99.90;;;;;;5035047;28;20447;-68
2022/03/07 04:09:15;;;;;;;1999.90;999.90;;;1.30;99.90;;;;;;5036050;28;20505;-70
2022/03/07 04:11:42;;;;;;;1999.90;999.90;;;1.10;99.90;;;;;;5035173;28;20521;-69
2022/03/07 04:14:08;;;;;;;1999.90;999.90;;;1.00;99.90;;;;;;5035982;28;20442;-69
2022/03/07 04:16:38;;;;;;;1999.90;999.90;;;0.90;99.90;;;;;;5035106;28;20969;-70
2022/03/07 04:19:05;;;;;;;1999.90;999.90;;;0.80;99.90;;;;;;5035436;28;21030;-69
2022/03/07 04:21:32;;;;;;;1999.90;999.90;;;0.80;99.90;;;;;;5034839;28;20494;-70
2022/03/07 04:24:00;;;;;;;1999.90;999.90;;;0.60;99.90;;;;;;5034977;28;20830;-69
2022/03/07 04:26:27;;;;;;;1999.90;999.90;;;0.60;99.90;;;;;;5035023;28;20943;-70
2022/03/07 04:28:54;;;;;;;1999.90;999.90;;;0.50;99.90;;;;;;5035796;28;20529;-68
2022/03/07 04:31:20;;;;;;;1999.90;999.90;;;0.50;99.90;;;;;;5035029;28;20447;-68
2022/03/07 04:33:47;;;;;;;1999.90;999.90;;;0.50;99.90;;;;;;5034858;28;20504;-69
2022/03/07 04:36:15;;;;;;;1999.90;999.90;;;0.40;99.90;;;;;;5035133;28;20971;-69
2022/03/07 04:38:41;;;;;;;1999.90;999.90;;;0.40;99.90;;;;;;5034546;28;20471;-70
2022/03/07 04:41:10;;;;;;;1999.90;999.90;;;0.40;99.90;;;;;;5034867;28;20479;-69
2022/03/07 04:43:36;;;;;;;1999.90;999.90;;;0.40;99.90;;;;;;5034704;28;20509;-69
2022/03/07 04:46:04;;;;;;;1999.90;999.90;;;0.30;99.90;;;;;;5034807;28;20455;-68
2022/03/07 04:48:31;;;;;;;1999.90;999.90;;;0.30;99.90;;;;;;5035465;28;20471;-69
2022/03/07 04:50:58;;;;;;;1999.90;999.90;;;0.30;99.90;;;;;;5035086;28;20858;-69
2022/03/07 04:53:24;;;;;;;1999.90;999.90;;;0.70;99.90;;;;;;5035163;28;20875;-72
2022/03/07 04:55:51;;;;;;;1999.90;999.90;;;0.30;99.90;;;;;;5035538;28;20448;-69
2022/03/07 04:58:19;;;;;;;1999.90;999.90;;;0.20;99.90;;;;;;5034943;28;20467;-69
2022/03/07 05:00:46;;;;;;;1999.90;999.90;;;0.00;99.90;;;;;;5035483;28;20532;-67
2022/03/07 05:03:13;;;;;;;1999.90;999.90;;;-0.10;99.90;;;;;;5035311;28;20447;-69
2022/03/07 05:05:39;;;;;;;1999.90;999.90;;;0.20;99.90;;;;;;5034291;28;20443;-69
2022/03/07 05:08:06;;;;;;;1999.90;999.90;;;-0.10;99.90;;;;;;5055973;23;20495;-70
2022/03/07 05:10:33;;;;;;;1999.90;999.90;;;0.30;99.90;;;;;;5024227;28;20440;-70
2022/03/07 05:12:59;;;;;;;1999.90;999.90;;;-0.10;99.90;;;;;;5035537;28;20501;-70
2022/03/07 05:15:27;;;;;;;1999.90;999.90;;;0.00;99.90;;;;;;5035221;28;20524;-70
2022/03/07 05:17:54;;;;;;;1999.90;999.90;;;0.10;99.90;;;;;;5035339;28;21275;-72
2022/03/07 05:20:22;;;;;;;1999.90;999.90;;;-0.10;99.90;;;;;;5034900;28;20545;-71
2022/03/07 05:22:49;;;;;;;1999.90;999.90;;;-0.20;99.90;;;;;;5035920;28;20443;-70
2022/03/07 05:25:17;;;;;;;1999.90;999.90;;;-0.30;99.90;;;;;;5035543;28;20501;-70
2022/03/07 05:27:45;;;;;;;1999.90;999.90;;;-0.30;99.90;;;;;;5036204;28;20517;-70
2022/03/07 05:30:15;;;;;;;1999.90;999.90;;;-0.30;99.90;;;;;;5035340;28;20517;-70
2022/03/07 05:32:44;;;;;;;1999.90;999.90;;;-0.20;99.90;;;;;;5035716;28;20873;-70
2022/03/07 05:35:11;;;;;;;1999.90;999.90;;;-0.30;99.90;;;;;;5035304;28;20451;-71
2022/03/07 05:37:37;;;;;;;1999.90;999.90;;;-0.40;99.90;;;;;;5035649;28;20471;-72
2022/03/07 05:40:06;;;;;;;1999.90;999.90;;;-0.30;99.90;;;;;;5034731;28;20882;-71
2022/03/07 05:42:33;;;;;;;1999.90;999.90;;;-0.50;99.90;;;;;;5034568;28;20537;-70
2022/03/07 05:45:00;;;;;;;1999.90;999.90;;;-0.20;99.90;;;;;;5034644;28;20454;-70
2022/03/07 05:47:27;;;;;;;1999.90;999.90;;;-0.60;99.90;;;;;;5034316;28;20893;-71
2022/03/07 05:49:55;;;;;;;1999.90;999.90;;;-0.60;99.90;;;;;;5034463;28;20451;-70
2022/03/07 05:52:21;;;;;;;1999.90;999.90;;;-0.60;99.90;;;;;;5034377;28;20456;-70
2022/03/07 05:54:48;;;;;;;1999.90;999.90;;;-0.60;99.90;;;;;;5034266;28;20974;-71
2022/03/07 05:57:15;;;;;;;1999.90;999.90;;;0.00;99.90;;;;;;5034195;28;20501;-72
2022/03/07 05:59:41;;;;;;;1999.90;999.90;;;-0.60;99.90;;;;;;5034568;28;20451;-71
2022/03/07 06:02:08;;;;;;;1999.90;999.90;;;0.00;99.90;;;;;;5033826;28;20483;-70
2022/03/07 06:04:35;;;;;;;1999.90;999.90;;;-0.60;99.90;;;;;;5034325;28;20501;-70
2022/03/07 06:07:03;;;;;;;1999.90;999.90;;;-0.40;99.90;;;;;;5034306;28;20525;-72
2022/03/07 06:09:30;;;;;;;1999.90;999.90;;;-0.70;99.90;;;;;;5034348;28;20487;-70
2022/03/07 06:11:57;;;;;;;1999.90;999.90;;;-0.10;99.90;;;;;;5033878;28;20443;-70
2022/03/07 06:14:24;;;;;;;1999.90;999.90;;;-0.60;99.90;;;;;;5033801;28;21025;-70
2022/03/07 06:16:50;;;;;;;1999.90;999.90;;;0.00;99.90;;;;;;5033380;28;20447;-72
2022/03/07 06:19:17;;;;;;;1999.90;999.90;;;-0.60;99.90;;;;;;5028576;28;20471;-71
2022/03/07 06:21:44;;;;;;;1999.90;999.90;;;-0.70;99.90;;;;;;5033452;28;20522;-68
2022/03/07 06:24:12;;;;;;;1999.90;999.90;;;-0.70;99.90;;;;;;5033053;28;20921;-71
2022/03/07 06:26:39;;;;;;;1999.90;999.90;;;-0.60;99.90;;;;;;5012721;28;20460;-71
2022/03/07 06:29:06;;;;;;;1999.90;999.90;;;-0.50;99.90;;;;;;5013064;28;20486;-71
2022/03/07 06:31:33;;;;;;;1999.90;999.90;;;-0.40;99.90;;;;;;5013032;28;21007;-71
2022/03/07 06:33:59;;;;;;;1999.90;999.90;;;0.10;99.90;;;;;;5015608;28;20459;-71
2022/03/07 06:36:27;;;;;;;1999.90;999.90;;;0.40;99.90;;;;;;5031939;28;20490;-71
2022/03/07 06:38:54;;;;;;;1999.90;999.90;;;0.20;99.90;;;;;;5033303;28;20467;-71
2022/03/07 06:41:21;;;;;;;1999.90;999.90;;;0.60;99.90;;;;;;5033159;28;20479;-71
2022/03/07 06:43:48;;;;;;;1999.90;999.90;;;0.50;99.90;;;;;;5032644;28;21020;-70
2022/03/07 06:46:15;;;;;;;1999.90;999.90;;;1.30;99.90;;;;;;5032987;28;20451;-71
2022/03/07 06:48:41;;;;;;;1999.90;999.90;;;0.80;99.90;;;;;;5033367;28;20506;-71
2022/03/07 06:51:08;;;;;;;1999.90;999.90;;;0.80;99.90;;;;;;5032548;28;20500;-71
2022/03/07 06:53:35;;;;;;;1999.90;999.90;;;0.90;99.90;;;;;;5032800;28;20512;-71
2022/03/07 06:56:02;;;;;;;1999.90;999.90;;;1.10;99.90;;;;;;5032145;28;20459;-71
2022/03/07 06:58:30;;;;;;;1999.90;999.90;;;1.30;99.90;;;;;;5032268;28;20813;-70
2022/03/07 07:00:57;;;;;;;1999.90;999.90;;;1.50;99.90;;;;;;5032170;28;20991;-71
2022/03/07 07:03:23;;;;;;;1999.90;999.90;;;1.60;99.90;;;;;;5032878;28;20443;-70
2022/03/07 07:05:50;;;;;;;1999.90;999.90;;;1.40;99.90;;;;;;5032189;28;20455;-71
2022/03/07 07:08:16;;;;;;;1999.90;999.90;;;1.40;99.90;;;;;;5032335;28;20526;-71
2022/03/07 07:10:43;;;;;;;1999.90;999.90;;;1.50;99.90;;;;;;5032259;28;20497;-71
2022/03/07 07:13:14;;;;;;;1999.90;999.90;;;1.60;99.90;;;;;;5031894;28;20997;-71
2022/03/07 07:15:42;;;;;;;1999.90;999.90;;;1.80;99.90;;;;;;5031517;28;20465;-71
2022/03/07 07:18:09;;;;;;;1999.90;999.90;;;2.00;99.90;;;;;;5032773;28;20463;-72
2022/03/07 07:20:36;;;;;;;1999.90;999.90;;;1.60;99.90;;;;;;5031394;28;20497;-71
2022/03/07 07:23:02;;;;;;;1999.90;999.90;;;1.60;99.90;;;;;;5031961;28;20490;-71
2022/03/07 07:25:29;;;;;;;1999.90;999.90;;;1.80;99.90;;;;;;5031751;28;20454;-70
2022/03/07 07:27:56;;;;;;;1999.90;999.90;;;1.90;99.90;;;;;;5031012;28;20984;-71
2022/03/07 07:30:23;;;;;;;1999.90;999.90;;;1.90;99.90;;;;;;5031588;28;20463;-71
2022/03/07 07:32:51;;;;;;;1999.90;999.90;;;2.10;99.90;;;;;;5041737;28;20481;-70
2022/03/07 07:35:18;;;;;;;1999.90;999.90;;;2.20;99.90;;;;;;5041095;28;20458;-72
2022/03/07 07:37:44;;;;;;;1999.90;999.90;;;2.50;99.90;;;;;;5042923;28;20463;-71
2022/03/07 07:40:11;;;;;;;1999.90;999.90;;;2.60;99.90;;;;;;5031857;28;20505;-70
2022/03/07 07:42:38;;;;;;;1999.90;999.90;;;3.00;99.90;;;;;;5031242;28;20483;-71
2022/03/07 07:45:05;;;;;;;1999.90;999.90;;;2.70;99.90;;;;;;5031524;28;21029;-71
2022/03/07 07:47:32;;;;;;;1999.90;999.90;;;2.80;99.90;;;;;;5031847;28;20471;-71
2022/03/07 07:50:00;;;;;;;1999.90;999.90;;;2.90;99.90;;;;;;5031841;28;20947;-71
2022/03/07 07:52:27;;;;;;;1999.90;999.90;;;3.00;99.90;;;;;;5031572;28;20444;-73
2022/03/07 07:54:53;;;;;;;1999.90;999.90;;;3.10;99.90;;;;;;5031188;28;20521;-71
2022/03/07 07:57:20;;;;;;;1999.90;999.90;;;3.20;99.90;;;;;;5031605;28;20456;-71
2022/03/07 07:59:47;;;;;;;1999.90;999.90;;;3.40;99.90;;;;;;5032237;28;20473;-71
2022/03/07 08:02:13;;;;;;;1999.90;999.90;;;3.60;99.90;;;;;;5031343;28;21025;-72
2022/03/07 08:04:40;;;;;;;1999.90;999.90;;;3.70;99.90;;;;;;5030939;28;20497;-71
2022/03/07 08:07:08;;;;;;;1999.90;999.90;;;3.40;99.90;;;;;;5031650;28;20486;-70
2022/03/07 08:09:35;;;;;;;1999.90;999.90;;;3.60;99.90;;;;;;5031495;28;20467;-71
2022/03/07 08:12:02;;;;;;;1999.90;999.90;;;3.60;99.90;;;;;;5031394;28;20447;-71
2022/03/07 08:14:28;;;;;;;1999.90;999.90;;;3.70;99.90;;;;;;5031565;28;20447;-72
2022/03/07 08:16:55;;;;;;;1999.90;999.90;;;3.70;99.90;;;;;;5031600;28;20455;-71
2022/03/07 08:19:21;;;;;;;1999.90;999.90;;;3.90;99.90;;;;;;5031760;28;20984;-71
2022/03/07 08:21:48;;;;;;;1999.90;999.90;;;4.00;99.90;;;;;;5024430;28;20475;-71
2022/03/07 08:24:16;;;;;;;1999.90;999.90;;;4.20;99.90;;;;;;5023932;28;20883;-71
2022/03/07 08:26:43;;;;;;;1999.90;999.90;;;4.20;99.90;;;;;;5031536;28;20447;-70
2022/03/07 08:29:09;;;;;;;1999.90;999.90;;;3.90;99.90;;;;;;5031636;28;20463;-72
2022/03/07 08:31:36;;;;;;;1999.90;999.90;;;4.00;99.90;;;;;;5030951;28;20489;-71
2022/03/07 08:34:03;;;;;;;1999.90;999.90;;;3.90;99.90;;;;;;5030856;28;20577;-71
2022/03/07 08:36:31;;;;;;;1999.90;999.90;;;4.10;99.90;;;;;;5031745;28;20455;-71
2022/03/07 08:38:58;;;;;;;1999.90;999.90;;;4.40;99.90;;;;;;5031873;28;20566;-72
2022/03/07 08:41:27;;;;;;;1999.90;999.90;;;4.70;99.90;;;;;;5035112;28;20548;-71
2022/03/07 08:43:55;;;;;;;1999.90;999.90;;;4.90;99.90;;;;;;5034541;28;20497;-71
2022/03/07 08:46:21;;;;;;;1999.90;999.90;;;5.10;99.90;;;;;;5034673;28;20474;-70
2022/03/07 08:48:48;;;;;;;1999.90;999.90;;;5.10;99.90;;;;;;5035465;28;20471;-71
2022/03/07 08:51:15;;;;;;;1999.90;999.90;;;5.00;99.90;;;;;;5036875;28;20455;-71
2022/03/07 08:53:42;;;;;;;1999.90;999.90;;;5.40;99.90;;;;;;5036353;28;20447;-70
2022/03/07 08:56:08;;;;;;;1999.90;999.90;;;5.50;99.90;;;;;;5034037;28;20451;-69
2022/03/07 08:58:36;;;;;;;1999.90;999.90;;;5.30;99.90;;;;;;5033881;28;20470;-70
2022/03/07 09:01:04;;;;;;;1999.90;999.90;;;5.30;99.90;;;;;;5033745;28;20448;-70
2022/03/07 09:03:30;;;;;;;1999.90;999.90;;;5.30;99.90;;;;;;5034177;28;20483;-71
2022/03/07 09:05:57;;;;;;;1999.90;999.90;;;5.10;99.90;;;;;;5034748;28;20997;-71
2022/03/07 09:08:24;;;;;;;1999.90;999.90;;;5.20;99.90;;;;;;5020576;28;20548;-68
2022/03/07 09:10:50;;;;;;;1999.90;999.90;;;5.30;99.90;;;;;;5033641;28;20456;-71
2022/03/07 09:13:17;;;;;;;1999.90;999.90;;;5.30;99.90;;;;;;5036804;28;20508;-70
2022/03/07 09:15:46;;;;;;;1999.90;999.90;;;5.60;99.90;;;;;;5038854;28;20451;-71
2022/03/07 09:18:13;;;;;;;1999.90;999.90;;;5.90;99.90;;;;;;5030392;28;20480;-72
2022/03/07 09:20:40;;;;;;;1999.90;999.90;;;6.00;99.90;;;;;;5034618;28;20527;-71
2022/03/07 09:23:07;;;;;;;1999.90;999.90;;;6.00;99.90;;;;;;5035513;28;20545;-71
2022/03/07 09:25:33;;;;;;;1999.90;999.90;;;5.80;99.90;;;;;;5034092;28;20444;-72
2022/03/07 09:28:00;;;;;;;1999.90;999.90;;;5.90;99.90;;;;;;5027800;28;20509;-71
2022/03/07 09:30:27;;;;;;;1999.90;999.90;;;5.60;99.90;;;;;;5034667;28;20501;-71
2022/03/07 09:32:56;;;;;;;1999.90;999.90;;;5.80;99.90;;;;;;5034523;28;20980;-71
2022/03/07 09:35:22;;;;;;;1999.90;999.90;;;6.00;99.90;;;;;;5035345;28;20459;-71
2022/03/07 09:37:49;;;;;;;1999.90;999.90;;;6.00;99.90;;;;;;5036280;28;20919;-71
2022/03/07 09:40:16;;;;;;;1999.90;999.90;;;6.00;99.90;;;;;;5038157;28;20806;-71
2022/03/07 09:42:42;;;;;;;1999.90;999.90;;;6.10;99.90;;;;;;5037474;28;20475;-72
2022/03/07 09:45:12;;;;;;;1999.90;999.90;;;6.30;99.90;;;;;;5038411;28;20505;-71
2022/03/07 09:47:41;;;;;;;1999.90;999.90;;;6.50;99.90;;;;;;5037030;28;20541;-71
2022/03/07 09:50:10;;;;;;;1999.90;999.90;;;6.40;99.90;;;;;;5037130;28;20443;-70
2022/03/07 09:52:37;;;;;;;1999.90;999.90;;;6.50;99.90;;;;;;5037151;28;20443;-71
2022/03/07 09:55:04;;;;;;;1999.90;999.90;;;6.50;99.90;;;;;;5037946;28;20447;-70
2022/03/07 09:57:32;;;;;;;1999.90;999.90;;;6.40;99.90;;;;;;5038078;28;20467;-70
2022/03/07 09:59:59;;;;;;;1999.90;999.90;;;6.70;99.90;;;;;;5037887;28;20546;-71
2022/03/07 10:02:25;;;;;;;1999.90;999.90;;;6.70;99.90;;;;;;5037502;28;20536;-71
2022/03/07 10:04:52;;;;;;;1999.90;999.90;;;6.80;99.90;;;;;;5038127;28;20492;-71
2022/03/07 10:07:22;;;;;;;1999.90;999.90;;;6.70;99.90;;;;;;5037245;28;20812;-71
2022/03/07 10:09:48;;;;;;;1999.90;999.90;;;6.70;99.90;;;;;;5037591;28;20462;-72
2022/03/07 10:12:15;;;;;;;1999.90;999.90;;;6.80;99.90;;;;;;5036999;28;20501;-69
2022/03/07 10:14:44;;;;;;;1999.90;999.90;;;6.80;99.90;;;;;;5031364;28;20509;-70
2022/03/07 10:17:19;;;;;;;1999.90;999.90;;;6.50;99.90;;;;;;5036772;28;20478;-70
2022/03/07 10:19:46;;;;;;;1999.90;999.90;;;6.60;99.90;;;;;;5035245;28;20446;-71
2022/03/07 10:22:14;;;;;;;1999.90;999.90;;;6.60;99.90;;;;;;5034666;28;20531;-71
2022/03/07 10:24:42;;;;;;;1999.90;999.90;;;6.30;99.90;;;;;;5035176;28;21029;-70
2022/03/07 10:27:09;;;;;;;1999.90;999.90;;;6.20;99.90;;;;;;5035392;28;20451;-70
2022/03/07 10:29:46;;;;;;;1999.90;999.90;;;6.30;99.90;;;;;;5033560;28;20452;-71
2022/03/07 10:32:17;;;;;;;1999.90;999.90;;;6.40;99.90;;;;;;5033998;28;20514;-71
2022/03/07 10:34:43;;;;;;;1999.90;999.90;;;6.40;99.90;;;;;;5034805;28;20455;-71
2022/03/07 10:37:12;;;;;;;1999.90;999.90;;;6.50;99.90;;;;;;5036545;28;20447;-71
2022/03/07 10:39:48;;;;;;;1999.90;999.90;;;6.60;99.90;;;;;;5035244;28;20917;-71
2022/03/07 10:42:19;;;;;;;1999.90;999.90;;;6.50;99.90;;;;;;5036234;28;20521;-71
2022/03/07 10:44:46;;;;;;;1999.90;999.90;;;6.60;99.90;;;;;;5036138;28;20459;-72
2022/03/07 10:47:14;;;;;;;1999.90;999.90;;;6.50;99.90;;;;;;5036038;28;20443;-70
2022/03/07 10:49:49;;;;;;;1999.90;999.90;;;6.30;99.90;;;;;;5036575;28;20451;-70
2022/03/07 10:52:16;;;;;;;1999.90;999.90;;;6.70;99.90;;;;;;5035837;28;20451;-71
2022/03/07 10:54:43;;;;;;;1999.90;999.90;;;6.70;99.90;;;;;;5036551;28;20451;-71
2022/03/07 10:57:11;;;;;;;1999.90;999.90;;;6.80;99.90;;;;;;5034641;28;20451;-71
2022/03/07 10:59:38;;;;;;;1999.90;999.90;;;6.40;99.90;;;;;;5029726;28;20452;-70
2022/03/07 11:02:09;;;;;;;1999.90;999.90;;;6.30;99.90;;;;;;5014436;28;20495;-71
2022/03/07 11:04:37;;;;;;;1999.90;999.90;;;6.50;99.90;;;;;;5027578;28;20457;-70
2022/03/07 11:07:04;;;;;;;1999.90;999.90;;;7.00;99.90;;;;;;5036220;28;20543;-71
2022/03/07 11:09:31;;;;;;;1999.90;999.90;;;7.60;99.90;;;;;;5035981;28;20509;-70
2022/03/07 11:11:59;;;;;;;1999.90;999.90;;;7.70;99.90;;;;;;5032507;28;20447;-70
2022/03/07 11:14:28;;;;;;;1999.90;999.90;;;8.00;99.90;;;;;;5031832;28;20455;-70
2022/03/07 11:16:56;;;;;;;1999.90;999.90;;;8.30;99.90;;;;;;5031910;28;20538;-70
2022/03/07 11:19:23;;;;;;;1999.90;999.90;;;8.70;98.50;;;;;;5033737;28;20557;-70
2022/03/07 11:21:52;;;;;;;1999.90;999.90;;;8.90;97.90;;;;;;5033284;28;20455;-70
2022/03/07 11:24:20;;;;;;;1999.90;999.90;;;8.50;98.40;;;;;;5033797;28;20451;-70
2022/03/07 11:26:48;;;;;;;1999.90;999.90;;;7.90;99.00;;;;;;5032147;28;20497;-70
2022/03/07 11:29:16;;;;;;;1999.90;999.90;;;8.40;98.60;;;;;;5032047;28;20475;-70
2022/03/07 11:31:44;;;;;;;1999.90;999.90;;;8.60;98.00;;;;;;5035252;28;20512;-70
2022/03/07 11:34:12;;;;;;;1999.90;999.90;;;8.00;98.20;;;;;;5035538;28;20505;-71
2022/03/07 11:36:41;;;;;;;1999.90;999.90;;;7.70;99.30;;;;;;5035388;28;20439;-70
2022/03/07 11:39:09;;;;;;;1999.90;999.90;;;7.60;99.80;;;;;;5033339;28;20471;-70
2022/03/07 11:41:37;;;;;;;1999.90;999.90;;;7.70;99.90;;;;;;5033421;28;20447;-70
2022/03/07 11:44:09;;;;;;;1999.90;999.90;;;7.90;99.80;;;;;;5035235;28;20563;-70
2022/03/07 11:46:37;;;;;;;1999.90;999.90;;;7.70;99.90;;;;;;5019023;28;20531;-70
2022/03/07 11:49:08;;;;;;;1999.90;999.90;;;7.60;99.90;;;;;;5015929;28;20480;-69
2022/03/07 11:51:37;;;;;;;1999.90;999.90;;;7.60;99.90;;;;;;5014906;28;20500;-70
2022/03/07 11:54:04;;;;;;;1999.90;999.90;;;7.70;99.90;;;;;;5017653;28;20454;-70
2022/03/07 11:56:32;;;;;;;1999.90;999.90;;;8.00;99.90;;;;;;5033180;28;20603;-71
2022/03/07 11:59:02;;;;;;;1999.90;999.90;;;8.00;99.10;;;;;;5036366;28;20971;-70
2022/03/07 12:01:31;;;;;;;1999.90;999.90;;;7.70;99.60;;;;;;5035368;28;20458;-70
2022/03/07 12:04:10;;;;;;;1999.90;999.90;;;7.70;99.90;;;;;;5033391;28;21003;-70
2022/03/07 12:06:44;;;;;;;1999.90;999.90;;;8.00;99.40;;;;;;5035973;28;20514;-70
2022/03/07 12:09:11;;;;;;;1999.90;999.90;;;7.80;99.40;;;;;;5035145;28;20474;-70